createdAt,value
2023-11-01T00:01:58.243Z,12.00
2023-11-01T00:04:24.950Z,12.00
2023-11-01T00:06:51.688Z,12.30
2023-11-01T00:09:18.379Z,12.10
2023-11-01T00:11:45.095Z,12.10
2023-11-01T00:14:11.887Z,12.10
2023-11-01T00:16:39.027Z,12.10
2023-11-01T00:19:06.236Z,12.10
2023-11-01T00:21:33.163Z,12.00
2023-11-01T00:23:59.890Z,12.10
2023-11-01T00:26:26.593Z,12.00
2023-11-01T00:28:53.319Z,11.90
2023-11-01T00:31:20.006Z,11.80
2023-11-01T00:33:46.793Z,11.80
2023-11-01T00:36:13.826Z,11.80
2023-11-01T00:38:40.551Z,11.80
2023-11-01T00:41:07.348Z,11.80
2023-11-01T00:43:34.358Z,11.80
2023-11-01T00:46:01.066Z,11.90
2023-11-01T00:48:27.844Z,11.90
2023-11-01T00:50:54.729Z,12.00
2023-11-01T00:53:22.061Z,12.00
2023-11-01T00:55:48.852Z,12.00
2023-11-01T00:58:15.578Z,12.00
2023-11-01T01:00:42.379Z,12.00
2023-11-01T01:03:11.648Z,12.00
2023-11-01T01:05:38.637Z,12.00
2023-11-01T01:08:05.438Z,12.00
2023-11-01T01:10:32.634Z,12.00
2023-11-01T01:12:59.770Z,12.00
2023-11-01T01:15:26.843Z,12.00
2023-11-01T01:17:54.451Z,11.90
2023-11-01T01:20:21.216Z,11.90
2023-11-01T01:22:48.471Z,11.90
2023-11-01T01:25:15.354Z,11.90
2023-11-01T01:27:42.425Z,11.90
2023-11-01T01:30:09.919Z,11.90
2023-11-01T01:32:36.722Z,11.90
2023-11-01T01:35:03.597Z,11.90
2023-11-01T01:37:30.413Z,12.00
2023-11-01T01:39:57.153Z,12.00
2023-11-01T01:42:23.818Z,12.00
2023-11-01T01:44:51.966Z,12.00
2023-11-01T01:47:19.919Z,12.00
2023-11-01T01:49:46.721Z,12.00
2023-11-01T01:52:13.839Z,12.00
2023-11-01T01:54:44.137Z,12.00
2023-11-01T01:57:11.558Z,12.00
2023-11-01T01:59:38.510Z,12.00
2023-11-01T02:02:07.339Z,11.90
2023-11-01T02:04:34.091Z,11.90
2023-11-01T02:07:00.791Z,11.90
2023-11-01T02:09:27.632Z,11.90
2023-11-01T02:11:54.346Z,11.90
2023-11-01T02:14:22.437Z,11.90
2023-11-01T02:16:51.032Z,11.90
2023-11-01T02:19:18.225Z,11.90
2023-11-01T02:21:44.968Z,11.90
2023-11-01T02:24:11.823Z,12.00
2023-11-01T02:26:38.531Z,12.00
2023-11-01T02:29:06.208Z,12.00
2023-11-01T02:31:33.045Z,12.00
2023-11-01T02:33:59.905Z,12.00
2023-11-01T02:36:26.773Z,12.00
2023-11-01T02:38:53.530Z,11.90
2023-11-01T02:41:20.207Z,11.90
2023-11-01T02:43:47.032Z,11.90
2023-11-01T02:46:13.732Z,11.90
2023-11-01T02:48:40.423Z,11.90
2023-11-01T02:51:07.159Z,11.80
2023-11-01T02:53:33.899Z,11.70
2023-11-01T02:56:00.860Z,11.70
2023-11-01T02:58:29.653Z,11.70
2023-11-01T03:00:56.376Z,11.60
2023-11-01T03:03:23.228Z,11.50
2023-11-01T03:05:50.554Z,11.50
2023-11-01T03:08:17.353Z,11.50
2023-11-01T03:10:44.728Z,11.40
2023-11-01T03:13:11.534Z,11.40
2023-11-01T03:15:38.464Z,11.40
2023-11-01T03:18:07.292Z,11.30
2023-11-01T03:20:34.729Z,11.30
2023-11-01T03:23:02.166Z,11.40
2023-11-01T03:25:31.415Z,11.40
2023-11-01T03:27:58.058Z,11.50
2023-11-01T03:30:24.716Z,11.60
2023-11-01T03:32:51.448Z,11.60
2023-11-01T03:35:18.362Z,11.70
2023-11-01T03:37:45.047Z,11.70
2023-11-01T03:40:11.920Z,11.80
2023-11-01T03:42:39.060Z,11.80
2023-11-01T03:45:06.668Z,11.80
2023-11-01T03:47:33.414Z,11.90
2023-11-01T03:50:01.381Z,11.90
2023-11-01T03:52:28.209Z,11.90
2023-11-01T03:54:54.973Z,11.90
2023-11-01T03:57:21.739Z,11.90
2023-11-01T03:59:48.508Z,11.90
2023-11-01T04:02:15.297Z,11.90
2023-11-01T04:04:42.465Z,11.90
2023-11-01T04:07:09.136Z,11.90
2023-11-01T04:09:35.785Z,11.90
2023-11-01T04:12:02.426Z,11.80
2023-11-01T04:14:29.086Z,11.80
2023-11-01T04:16:56.972Z,11.90
2023-11-01T04:19:23.833Z,11.80
2023-11-01T04:21:50.499Z,11.80
2023-11-01T04:24:17.147Z,11.80
2023-11-01T04:26:43.893Z,11.70
2023-11-01T04:29:10.587Z,11.80
2023-11-01T04:31:37.312Z,11.80
2023-11-01T04:34:04.047Z,11.70
2023-11-01T04:36:30.706Z,11.70
2023-11-01T04:38:58.303Z,11.80
2023-11-01T04:41:28.974Z,11.70
2023-11-01T04:43:56.492Z,11.70
2023-11-01T04:46:23.344Z,11.70
2023-11-01T04:48:51.051Z,11.80
2023-11-01T04:51:20.311Z,11.70
2023-11-01T04:53:47.440Z,11.70
2023-11-01T04:56:14.280Z,11.80
2023-11-01T04:58:43.759Z,11.80
2023-11-01T05:01:10.558Z,11.80
2023-11-01T05:03:38.746Z,11.80
2023-11-01T05:06:06.808Z,11.80
2023-11-01T05:08:33.749Z,11.80
2023-11-01T05:11:00.680Z,11.80
2023-11-01T05:13:27.407Z,11.80
2023-11-01T05:15:55.221Z,11.80
2023-11-01T05:18:22.351Z,11.80
2023-11-01T05:20:49.120Z,11.80
2023-11-01T05:23:15.907Z,11.80
2023-11-01T05:25:42.633Z,11.90
2023-11-01T05:28:09.877Z,11.80
2023-11-01T05:30:36.842Z,11.80
2023-11-01T05:33:03.731Z,11.80
2023-11-01T05:35:30.587Z,11.80
2023-11-01T05:37:57.242Z,11.80
2023-11-01T05:40:24.252Z,11.80
2023-11-01T05:42:50.914Z,11.70
2023-11-01T05:45:18.450Z,11.80
2023-11-01T05:47:53.563Z,11.80
2023-11-01T05:50:25.720Z,11.80
2023-11-01T05:52:54.924Z,11.80
2023-11-01T05:55:26.651Z,11.80
2023-11-01T05:58:01.035Z,11.80
2023-11-01T06:00:27.944Z,11.70
2023-11-01T06:02:54.784Z,11.70
2023-11-01T06:05:23.619Z,11.70
2023-11-01T06:07:53.795Z,11.60
2023-11-01T06:10:20.743Z,11.60
2023-11-01T06:12:47.423Z,11.60
2023-11-01T06:15:16.056Z,11.60
2023-11-01T06:17:42.895Z,11.60
2023-11-01T06:20:09.747Z,11.60
2023-11-01T06:22:36.441Z,11.60
2023-11-01T06:25:03.805Z,11.60
2023-11-01T06:27:30.686Z,11.60
2023-11-01T06:29:57.439Z,11.60
2023-11-01T06:32:24.593Z,11.60
2023-11-01T06:34:51.248Z,11.60
2023-11-01T06:37:17.956Z,11.60
2023-11-01T06:39:44.634Z,11.60
2023-11-01T06:42:11.373Z,11.60
2023-11-01T06:44:38.111Z,11.60
2023-11-01T06:47:06.048Z,11.60
2023-11-01T06:49:35.288Z,11.60
2023-11-01T06:52:02.141Z,11.60
2023-11-01T06:54:29.365Z,11.60
2023-11-01T06:56:57.417Z,11.60
2023-11-01T06:59:24.250Z,11.60
2023-11-01T07:01:51.002Z,11.60
2023-11-01T07:04:17.676Z,11.60
2023-11-01T07:06:44.470Z,11.60
2023-11-01T07:09:11.969Z,11.60
2023-11-01T07:11:39.124Z,11.60
2023-11-01T07:14:05.899Z,11.60
2023-11-01T07:16:32.850Z,11.70
2023-11-01T07:18:59.550Z,11.70
2023-11-01T07:21:26.255Z,11.70
2023-11-01T07:23:53.160Z,11.80
2023-11-01T07:26:19.920Z,11.80
2023-11-01T07:28:46.645Z,11.90
2023-11-01T07:31:14.758Z,11.90
2023-11-01T07:33:43.515Z,11.90
2023-11-01T07:36:11.318Z,11.90
2023-11-01T07:38:40.745Z,11.90
2023-11-01T07:41:09.271Z,12.00
2023-11-01T07:43:35.928Z,12.00
2023-11-01T07:46:02.875Z,12.00
2023-11-01T07:48:29.569Z,12.00
2023-11-01T07:50:56.388Z,12.10
2023-11-01T07:53:23.104Z,12.10
2023-11-01T07:55:52.291Z,12.10
2023-11-01T07:58:20.469Z,12.10
2023-11-01T08:00:47.155Z,12.20
2023-11-01T08:03:13.915Z,12.20
2023-11-01T08:05:40.677Z,12.20
2023-11-01T08:08:08.154Z,12.20
2023-11-01T08:10:34.907Z,12.20
2023-11-01T08:13:01.769Z,12.20
2023-11-01T08:15:28.491Z,12.20
2023-11-01T08:17:55.199Z,12.20
2023-11-01T08:20:25.721Z,12.20
2023-11-01T08:22:52.678Z,12.20
2023-11-01T08:25:23.298Z,12.30
2023-11-01T08:27:50.384Z,12.30
2023-11-01T08:30:17.908Z,12.40
2023-11-01T08:32:45.251Z,12.50
2023-11-01T08:35:12.210Z,12.50
2023-11-01T08:37:39.336Z,12.50
2023-11-01T08:40:06.636Z,12.50
2023-11-01T08:42:33.692Z,12.50
2023-11-01T08:45:00.446Z,12.50
2023-11-01T08:47:45.391Z,12.50
2023-11-01T08:50:14.191Z,12.50
2023-11-01T08:52:45.582Z,12.60
2023-11-01T08:55:14.420Z,12.60
2023-11-01T08:57:42.306Z,12.70
2023-11-01T09:00:10.022Z,12.70
2023-11-01T09:02:37.155Z,12.80
2023-11-01T09:05:04.102Z,12.80
2023-11-01T09:07:30.849Z,12.80
2023-11-01T09:10:00.560Z,12.90
2023-11-01T09:12:29.104Z,12.90
2023-11-01T09:14:55.920Z,12.90
2023-11-01T09:17:22.710Z,13.00
2023-11-01T09:19:49.545Z,13.00
2023-11-01T09:22:16.590Z,13.00
2023-11-01T09:24:43.870Z,13.10
2023-11-01T09:27:10.671Z,13.10
2023-11-01T09:29:38.129Z,13.10
2023-11-01T09:32:05.563Z,13.20
2023-11-01T09:34:32.948Z,13.20
2023-11-01T09:36:59.714Z,13.20
2023-11-01T09:39:26.541Z,13.20
2023-11-01T09:42:15.996Z,13.30
2023-11-01T09:44:43.869Z,13.30
2023-11-01T09:47:12.137Z,13.30
2023-11-01T09:49:39.241Z,13.40
2023-11-01T09:52:07.448Z,13.40
2023-11-01T09:54:34.156Z,13.50
2023-11-01T09:57:02.753Z,13.50
2023-11-01T09:59:29.853Z,13.60
2023-11-01T10:01:56.768Z,13.60
2023-11-01T10:04:24.470Z,13.70
2023-11-01T10:06:51.485Z,13.70
2023-11-01T10:09:18.288Z,13.80
2023-11-01T10:11:46.871Z,13.90
2023-11-01T10:14:23.599Z,13.90
2023-11-01T10:16:50.311Z,14.00
2023-11-01T10:19:17.041Z,14.00
2023-11-01T10:21:44.028Z,14.10
2023-11-01T10:24:10.794Z,14.10
2023-11-01T10:26:37.607Z,14.10
2023-11-01T10:29:04.459Z,14.10
2023-11-01T10:31:31.328Z,14.10
2023-11-01T10:33:58.783Z,14.10
2023-11-01T10:36:25.689Z,14.30
2023-11-01T10:38:54.356Z,14.10
2023-11-01T10:41:21.389Z,14.20
2023-11-01T10:43:49.127Z,14.20
2023-11-01T10:46:18.260Z,14.20
2023-11-01T10:48:47.180Z,14.20
2023-11-01T10:51:14.924Z,14.30
2023-11-01T10:53:43.550Z,14.20
2023-11-01T10:56:10.320Z,14.30
2023-11-01T10:58:44.999Z,14.30
2023-11-01T11:01:25.180Z,14.40
2023-11-01T11:04:01.179Z,14.50
2023-11-01T11:06:38.299Z,14.60
2023-11-01T11:09:25.232Z,14.60
2023-11-01T11:12:14.204Z,14.60
2023-11-01T11:14:45.728Z,14.60
2023-11-01T11:17:24.853Z,14.70
2023-11-01T11:20:11.451Z,14.70
2023-11-01T11:23:03.105Z,14.70
2023-11-01T11:25:38.962Z,14.80
2023-11-01T11:28:17.354Z,14.90
2023-11-01T11:31:04.361Z,14.90
2023-11-01T11:33:34.913Z,14.90
2023-11-01T11:36:20.622Z,15.00
2023-11-01T11:38:53.683Z,15.00
2023-11-01T11:41:26.490Z,15.00
2023-11-01T11:44:05.814Z,15.00
2023-11-01T11:46:45.933Z,15.00
2023-11-01T11:49:32.030Z,15.00
2023-11-01T11:52:05.506Z,15.00
2023-11-01T11:54:33.794Z,15.00
2023-11-01T11:57:06.552Z,15.00
2023-11-01T11:59:34.206Z,15.00
2023-11-01T12:02:11.125Z,15.00
2023-11-01T12:04:40.660Z,15.00
2023-11-01T12:07:08.532Z,15.00
2023-11-01T12:09:35.368Z,15.00
2023-11-01T12:12:13.644Z,15.00
2023-11-01T12:14:44.808Z,15.00
2023-11-01T12:17:12.102Z,15.00
2023-11-01T12:19:46.828Z,14.90
2023-11-01T12:22:14.905Z,14.90
2023-11-01T12:24:44.339Z,14.90
2023-11-01T12:27:15.942Z,14.90
2023-11-01T12:29:42.985Z,14.90
2023-11-01T12:32:11.957Z,14.90
2023-11-01T12:34:40.913Z,14.90
2023-11-01T12:37:20.106Z,14.80
2023-11-01T12:40:17.005Z,14.90
2023-11-01T12:42:44.685Z,14.90
2023-11-01T12:45:12.072Z,14.90
2023-11-01T12:47:52.574Z,15.00
2023-11-01T12:50:25.160Z,15.10
2023-11-01T12:52:52.434Z,15.10
2023-11-01T12:55:19.607Z,15.10
2023-11-01T12:57:51.864Z,15.10
2023-11-01T13:00:21.113Z,15.20
2023-11-01T13:02:48.500Z,15.20
2023-11-01T13:05:16.321Z,15.20
2023-11-01T13:07:45.733Z,15.20
2023-11-01T13:10:13.285Z,15.20
2023-11-01T13:12:40.876Z,15.20
2023-11-01T13:15:09.947Z,15.10
2023-11-01T13:17:36.951Z,15.10
2023-11-01T13:20:06.727Z,15.10
2023-11-01T13:22:33.582Z,15.10
2023-11-01T13:25:00.960Z,15.10
2023-11-01T13:27:27.682Z,15.10
2023-11-01T13:29:54.443Z,15.10
2023-11-01T13:32:21.132Z,15.20
2023-11-01T13:34:48.020Z,15.20
2023-11-01T13:37:16.003Z,15.20
2023-11-01T13:39:42.844Z,15.20
2023-11-01T13:42:09.661Z,15.20
2023-11-01T13:44:36.692Z,15.20
2023-11-01T13:47:04.095Z,15.30
2023-11-01T13:49:31.841Z,15.20
2023-11-01T13:51:58.573Z,15.20
2023-11-01T13:54:25.243Z,15.20
2023-11-01T13:56:51.976Z,15.20
2023-11-01T13:59:19.868Z,15.20
2023-11-01T14:01:47.379Z,15.20
2023-11-01T14:04:16.760Z,15.20
2023-11-01T14:06:44.125Z,15.20
2023-11-01T14:09:13.533Z,15.20
2023-11-01T14:11:40.714Z,15.20
2023-11-01T14:14:09.818Z,15.20
2023-11-01T14:16:44.418Z,15.30
2023-11-01T14:19:11.938Z,15.40
2023-11-01T14:21:38.654Z,15.40
2023-11-01T14:24:05.915Z,15.50
2023-11-01T14:26:32.710Z,15.50
2023-11-01T14:28:59.407Z,15.50
2023-11-01T14:31:27.029Z,15.60
2023-11-01T14:33:53.971Z,15.70
2023-11-01T14:36:21.383Z,15.70
2023-11-01T14:38:51.123Z,15.60
2023-11-01T14:41:18.490Z,15.50
2023-11-01T14:43:46.661Z,15.40
2023-11-01T14:46:14.241Z,15.40
2023-11-01T14:48:41.076Z,15.30
2023-11-01T14:51:07.856Z,15.30
2023-11-01T14:53:34.627Z,15.30
2023-11-01T14:56:01.353Z,15.20
2023-11-01T14:58:28.070Z,15.10
2023-11-01T15:00:54.999Z,15.20
2023-11-01T15:03:21.858Z,15.10
2023-11-01T15:05:48.620Z,15.10
2023-11-01T15:08:15.327Z,15.00
2023-11-01T15:10:42.016Z,15.00
2023-11-01T15:13:08.850Z,15.00
2023-11-01T15:15:35.729Z,14.90
2023-11-01T15:18:02.582Z,14.90
2023-11-01T15:20:29.372Z,14.90
2023-11-01T15:22:57.259Z,14.90
2023-11-01T15:25:25.920Z,14.90
2023-11-01T15:27:52.646Z,14.90
2023-11-01T15:30:20.678Z,14.80
2023-11-01T15:32:47.474Z,14.80
2023-11-01T15:35:14.342Z,14.80
2023-11-01T15:37:41.338Z,14.80
2023-11-01T15:40:11.236Z,14.80
2023-11-01T15:42:37.965Z,14.70
2023-11-01T15:45:05.946Z,14.70
2023-11-01T15:47:32.710Z,14.60
2023-11-01T15:50:00.293Z,14.60
2023-11-01T15:52:26.995Z,14.60
2023-11-01T15:54:55.474Z,14.60
2023-11-01T15:57:24.314Z,14.60
2023-11-01T15:59:52.400Z,14.60
2023-11-01T16:02:19.569Z,14.60
2023-11-01T16:04:46.770Z,14.50
2023-11-01T16:07:13.575Z,14.50
2023-11-01T16:09:42.190Z,14.50
2023-11-01T16:12:09.598Z,14.50
2023-11-01T16:14:36.829Z,14.60
2023-11-01T16:17:06.306Z,14.50
2023-11-01T16:19:32.989Z,14.50
2023-11-01T16:21:59.713Z,14.50
2023-11-01T16:24:26.520Z,14.50
2023-11-01T16:26:53.296Z,14.50
2023-11-01T16:29:20.349Z,14.50
2023-11-01T16:31:47.116Z,14.40
2023-11-01T16:34:13.896Z,14.40
2023-11-01T16:36:40.616Z,14.40
2023-11-01T16:39:07.574Z,14.40
2023-11-01T16:41:35.194Z,14.40
2023-11-01T16:44:02.057Z,14.30
2023-11-01T16:46:28.836Z,14.40
2023-11-01T16:48:55.544Z,14.40
2023-11-01T16:51:22.208Z,14.40
2023-11-01T16:53:49.158Z,14.30
2023-11-01T16:56:16.030Z,14.30
2023-11-01T16:58:42.784Z,14.40
2023-11-01T17:01:09.588Z,14.30
2023-11-01T17:03:36.419Z,14.30
2023-11-01T17:06:04.025Z,14.30
2023-11-01T17:08:31.071Z,14.30
2023-11-01T17:10:58.214Z,14.30
2023-11-01T17:13:25.211Z,14.30
2023-11-01T17:15:57.080Z,14.30
2023-11-01T17:18:25.030Z,14.20
2023-11-01T17:20:53.213Z,14.20
2023-11-01T17:23:20.497Z,14.20
2023-11-01T17:25:50.267Z,14.20
2023-11-01T17:28:26.167Z,14.20
2023-11-01T17:30:53.873Z,14.20
2023-11-01T17:33:28.490Z,14.20
2023-11-01T17:35:58.878Z,14.30
2023-11-01T17:38:41.040Z,14.30
2023-11-01T17:41:10.238Z,14.30
2023-11-01T17:43:48.501Z,14.30
2023-11-01T17:46:19.523Z,14.30
2023-11-01T17:48:46.903Z,14.30
2023-11-01T17:51:14.863Z,14.30
2023-11-01T17:53:41.905Z,14.30
2023-11-01T17:56:13.390Z,14.30
2023-11-01T17:58:41.749Z,14.30
2023-11-01T18:01:08.471Z,14.20
2023-11-01T18:03:36.797Z,14.20
2023-11-01T18:06:03.727Z,14.20
2023-11-01T18:08:34.539Z,14.20
2023-11-01T18:11:05.818Z,14.20
2023-11-01T18:13:34.335Z,14.20
2023-11-01T18:16:03.767Z,14.20
2023-11-01T18:18:45.009Z,14.20
2023-11-01T18:21:29.437Z,14.20
2023-11-01T18:24:12.752Z,14.20
2023-11-01T18:26:43.036Z,14.20
2023-11-01T18:29:11.082Z,14.20
2023-11-01T18:31:44.022Z,14.20
2023-11-01T18:34:16.472Z,14.20
2023-11-01T18:36:45.317Z,14.20
2023-11-01T18:39:12.573Z,14.20
2023-11-01T18:41:44.711Z,14.20
2023-11-01T18:44:26.986Z,14.20
2023-11-01T18:46:55.149Z,14.10
2023-11-01T18:49:49.954Z,14.10
2023-11-01T18:52:18.173Z,14.10
2023-11-01T18:54:49.082Z,14.20
2023-11-01T18:57:37.412Z,14.10
2023-11-01T19:00:10.728Z,14.10
2023-11-01T19:02:38.129Z,14.10
2023-11-01T19:05:08.973Z,14.10
2023-11-01T19:07:40.067Z,14.00
2023-11-01T19:10:21.289Z,14.00
2023-11-01T19:12:51.804Z,14.00
2023-11-01T19:15:39.631Z,14.00
2023-11-01T19:18:07.896Z,14.10
2023-11-01T19:20:34.976Z,14.00
2023-11-01T19:23:01.987Z,14.00
2023-11-01T19:25:28.747Z,13.90
2023-11-01T19:27:55.409Z,13.90
2023-11-01T19:30:23.491Z,14.00
2023-11-01T19:32:50.410Z,13.90
2023-11-01T19:35:17.626Z,13.90
2023-11-01T19:37:45.356Z,13.90
2023-11-01T19:40:12.209Z,14.00
2023-11-01T19:42:38.907Z,14.00
2023-11-01T19:45:07.018Z,13.90
2023-11-01T19:47:34.007Z,13.90
2023-11-01T19:50:00.772Z,13.90
2023-11-01T19:52:27.475Z,13.80
2023-11-01T19:54:54.280Z,13.80
2023-11-01T19:57:21.016Z,13.80
2023-11-01T19:59:48.842Z,13.80
2023-11-01T20:02:16.033Z,13.80
2023-11-01T20:04:43.735Z,13.70
2023-11-01T20:07:10.929Z,13.80
2023-11-01T20:09:40.892Z,13.70
2023-11-01T20:12:08.397Z,13.70
2023-11-01T20:14:36.341Z,13.70
2023-11-01T20:17:05.837Z,13.70
2023-11-01T20:19:32.597Z,13.70
2023-11-01T20:22:00.221Z,13.70
2023-11-01T20:24:27.248Z,13.70
2023-11-01T20:26:56.724Z,13.70
2023-11-01T20:29:23.736Z,13.70
2023-11-01T20:31:51.843Z,13.80
2023-11-01T20:34:18.603Z,13.70
2023-11-01T20:36:45.446Z,13.80
2023-11-01T20:39:13.414Z,13.80
2023-11-01T20:41:40.640Z,13.80
2023-11-01T20:44:07.510Z,13.80
2023-11-01T20:46:34.383Z,13.80
2023-11-01T20:49:04.248Z,13.80
2023-11-01T20:51:34.086Z,13.80
2023-11-01T20:54:03.140Z,13.80
2023-11-01T20:56:29.856Z,13.70
2023-11-01T20:58:57.109Z,13.70
2023-11-01T21:01:24.502Z,13.70
2023-11-01T21:03:52.098Z,13.70
2023-11-01T21:06:19.117Z,13.70
2023-11-01T21:08:45.900Z,13.70
2023-11-01T21:11:12.626Z,13.70
2023-11-01T21:13:40.927Z,13.70
2023-11-01T21:16:10.353Z,13.70
2023-11-01T21:18:37.618Z,13.70
2023-11-01T21:21:05.997Z,13.60
2023-11-01T21:23:34.087Z,13.60
2023-11-01T21:26:04.194Z,13.60
2023-11-01T21:28:31.025Z,13.50
2023-11-01T21:31:04.912Z,13.50
2023-11-01T21:33:31.708Z,13.50
2023-11-01T21:35:58.688Z,13.50
2023-11-01T21:38:29.621Z,13.50
2023-11-01T21:40:56.343Z,13.40
2023-11-01T21:43:25.543Z,13.40
2023-11-01T21:45:53.867Z,13.50
2023-11-01T21:48:28.205Z,13.40
2023-11-01T21:51:05.109Z,13.40
2023-11-01T21:53:34.188Z,13.40
2023-11-01T21:56:01.491Z,13.40
2023-11-01T21:58:31.451Z,13.40
2023-11-01T22:01:05.149Z,13.40
2023-11-01T22:03:51.105Z,13.40
2023-11-01T22:06:30.665Z,13.40
2023-11-01T22:09:18.093Z,13.40
2023-11-01T22:11:49.969Z,13.30
2023-11-01T22:14:38.864Z,13.30
2023-11-01T22:17:11.382Z,13.40
2023-11-01T22:19:39.900Z,13.30
2023-11-01T22:22:33.916Z,13.30
2023-11-01T22:25:00.833Z,13.20
2023-11-01T22:27:38.519Z,13.10
2023-11-01T22:30:08.182Z,13.10
2023-11-01T22:32:34.919Z,13.10
2023-11-01T22:35:01.775Z,13.00
2023-11-01T22:37:29.506Z,13.00
2023-11-01T22:39:57.708Z,13.00
2023-11-01T22:42:32.328Z,13.00
2023-11-01T22:45:01.922Z,13.00
2023-11-01T22:47:29.194Z,13.00
2023-11-01T22:49:56.160Z,13.00
2023-11-01T22:52:23.015Z,13.10
2023-11-01T22:54:49.677Z,13.10
2023-11-01T22:57:16.446Z,13.10
2023-11-01T22:59:43.230Z,13.20
2023-11-01T23:02:10.638Z,13.20
2023-11-01T23:04:40.782Z,13.20
2023-11-01T23:07:10.184Z,13.20
2023-11-01T23:09:36.869Z,13.20
2023-11-01T23:12:04.350Z,13.10
2023-11-01T23:14:31.104Z,13.20
2023-11-01T23:16:57.842Z,13.20
2023-11-01T23:19:24.652Z,13.10
2023-11-01T23:21:51.340Z,13.10
2023-11-01T23:24:20.412Z,13.10
2023-11-01T23:26:52.920Z,13.10
2023-11-01T23:29:29.198Z,13.00
2023-11-01T23:31:56.131Z,13.00
2023-11-01T23:34:44.735Z,13.00
2023-11-01T23:37:29.620Z,13.00
2023-11-01T23:39:57.215Z,13.00
2023-11-01T23:42:32.682Z,12.90
2023-11-01T23:44:59.642Z,13.00
2023-11-01T23:47:38.368Z,12.90
2023-11-01T23:50:12.305Z,12.90
2023-11-01T23:52:39.048Z,12.90
2023-11-01T23:55:06.579Z,12.90
2023-11-01T23:57:34.708Z,12.90
